sensor_id;sensor_type;location;lat;lon;timestamp;P1;durP1;ratioP1;P2;durP2;ratioP2
53367;SDS011;39271;45.618;20.024;2022-07-24T00:00:42;18.40;;;10.43;;
53367;SDS011;39271;45.618;20.024;2022-07-24T00:09:15;14.10;;;10.25;;
53367;SDS011;39271;45.618;20.024;2022-07-24T00:18:42;21.80;;;11.05;;
53367;SDS011;39271;45.618;20.024;2022-07-24T00:32:08;21.15;;;10.07;;
53367;SDS011;39271;45.618;20.024;2022-07-24T00:41:17;20.38;;;10.90;;
53367;SDS011;39271;45.618;20.024;2022-07-24T00:46:43;22.48;;;10.13;;
53367;SDS011;39271;45.618;20.024;2022-07-24T00:49:23;19.33;;;10.48;;
53367;SDS011;39271;45.618;20.024;2022-07-24T00:51:59;18.65;;;11.13;;
53367;SDS011;39271;45.618;20.024;2022-07-24T00:54:48;30.65;;;11.20;;
53367;SDS011;39271;45.618;20.024;2022-07-24T00:57:20;18.25;;;10.57;;
53367;SDS011;39271;45.618;20.024;2022-07-24T01:00:27;18.73;;;11.70;;
53367;SDS011;39271;45.618;20.024;2022-07-24T01:03:50;19.23;;;10.00;;
53367;SDS011;39271;45.618;20.024;2022-07-24T01:06:29;20.17;;;11.85;;
53367;SDS011;39271;45.618;20.024;2022-07-24T01:09:12;17.60;;;10.45;;
53367;SDS011;39271;45.618;20.024;2022-07-24T01:15:08;13.82;;;10.80;;
53367;SDS011;39271;45.618;20.024;2022-07-24T01:18:02;25.08;;;11.32;;
53367;SDS011;39271;45.618;20.024;2022-07-24T01:20:35;14.93;;;11.02;;
53367;SDS011;39271;45.618;20.024;2022-07-24T01:23:27;18.67;;;11.07;;
53367;SDS011;39271;45.618;20.024;2022-07-24T01:32:03;20.00;;;10.82;;
53367;SDS011;39271;45.618;20.024;2022-07-24T01:34:32;17.10;;;11.63;;
53367;SDS011;39271;45.618;20.024;2022-07-24T01:36:57;20.42;;;11.77;;
53367;SDS011;39271;45.618;20.024;2022-07-24T01:39:32;16.60;;;11.50;;
53367;SDS011;39271;45.618;20.024;2022-07-24T01:42:04;22.48;;;10.00;;
53367;SDS011;39271;45.618;20.024;2022-07-24T01:44:35;15.95;;;9.98;;
53367;SDS011;39271;45.618;20.024;2022-07-24T01:47:10;15.20;;;10.20;;
53367;SDS011;39271;45.618;20.024;2022-07-24T01:49:36;18.52;;;9.63;;
53367;SDS011;39271;45.618;20.024;2022-07-24T01:52:13;17.67;;;9.30;;
53367;SDS011;39271;45.618;20.024;2022-07-24T01:54:42;21.00;;;9.57;;
53367;SDS011;39271;45.618;20.024;2022-07-24T01:57:15;14.25;;;10.50;;
53367;SDS011;39271;45.618;20.024;2022-07-24T01:59:41;26.45;;;9.90;;
53367;SDS011;39271;45.618;20.024;2022-07-24T02:02:26;16.75;;;9.73;;
53367;SDS011;39271;45.618;20.024;2022-07-24T02:04:57;15.90;;;10.40;;
53367;SDS011;39271;45.618;20.024;2022-07-24T02:07:37;13.25;;;9.95;;
53367;SDS011;39271;45.618;20.024;2022-07-24T02:10:13;13.23;;;8.82;;
53367;SDS011;39271;45.618;20.024;2022-07-24T02:12:44;14.73;;;9.40;;
53367;SDS011;39271;45.618;20.024;2022-07-24T02:15:28;18.40;;;9.90;;
53367;SDS011;39271;45.618;20.024;2022-07-24T02:17:55;19.83;;;9.85;;
53367;SDS011;39271;45.618;20.024;2022-07-24T02:20:42;19.38;;;9.13;;
53367;SDS011;39271;45.618;20.024;2022-07-24T02:23:17;13.75;;;9.93;;
53367;SDS011;39271;45.618;20.024;2022-07-24T02:25:49;12.23;;;8.90;;
53367;SDS011;39271;45.618;20.024;2022-07-24T02:28:21;16.67;;;10.27;;
53367;SDS011;39271;45.618;20.024;2022-07-24T02:34:26;15.50;;;8.68;;
53367;SDS011;39271;45.618;20.024;2022-07-24T02:37:07;18.88;;;9.82;;
53367;SDS011;39271;45.618;20.024;2022-07-24T02:39:36;12.25;;;9.30;;
53367;SDS011;39271;45.618;20.024;2022-07-24T02:42:14;22.83;;;9.68;;
53367;SDS011;39271;45.618;20.024;2022-07-24T02:44:48;15.02;;;10.27;;
53367;SDS011;39271;45.618;20.024;2022-07-24T02:47:17;13.60;;;9.38;;
53367;SDS011;39271;45.618;20.024;2022-07-24T02:49:58;12.65;;;9.38;;
53367;SDS011;39271;45.618;20.024;2022-07-24T02:52:41;13.50;;;8.55;;
53367;SDS011;39271;45.618;20.024;2022-07-24T02:55:27;17.52;;;9.73;;
53367;SDS011;39271;45.618;20.024;2022-07-24T02:58:02;19.52;;;8.75;;
53367;SDS011;39271;45.618;20.024;2022-07-24T03:00:31;24.42;;;9.95;;
53367;SDS011;39271;45.618;20.024;2022-07-24T03:03:08;14.80;;;9.00;;
53367;SDS011;39271;45.618;20.024;2022-07-24T03:05:38;20.17;;;10.18;;
53367;SDS011;39271;45.618;20.024;2022-07-24T03:08:10;14.70;;;9.50;;
53367;SDS011;39271;45.618;20.024;2022-07-24T03:10:56;21.35;;;9.65;;
53367;SDS011;39271;45.618;20.024;2022-07-24T03:13:28;19.75;;;9.73;;
53367;SDS011;39271;45.618;20.024;2022-07-24T03:16:00;19.30;;;9.88;;
53367;SDS011;39271;45.618;20.024;2022-07-24T03:18:41;17.88;;;9.43;;
53367;SDS011;39271;45.618;20.024;2022-07-24T03:21:13;21.38;;;9.32;;
53367;SDS011;39271;45.618;20.024;2022-07-24T03:23:44;13.35;;;8.98;;
53367;SDS011;39271;45.618;20.024;2022-07-24T03:32:26;22.17;;;9.75;;
53367;SDS011;39271;45.618;20.024;2022-07-24T03:34:59;20.75;;;9.48;;
53367;SDS011;39271;45.618;20.024;2022-07-24T03:37:34;18.60;;;10.27;;
53367;SDS011;39271;45.618;20.024;2022-07-24T03:40:00;18.17;;;9.63;;
53367;SDS011;39271;45.618;20.024;2022-07-24T03:42:38;16.60;;;11.10;;
53367;SDS011;39271;45.618;20.024;2022-07-24T03:45:13;23.10;;;11.23;;
53367;SDS011;39271;45.618;20.024;2022-07-24T03:47:39;18.65;;;9.70;;
53367;SDS011;39271;45.618;20.024;2022-07-24T03:50:05;15.98;;;10.13;;
53367;SDS011;39271;45.618;20.024;2022-07-24T03:52:49;22.42;;;10.52;;
53367;SDS011;39271;45.618;20.024;2022-07-24T03:55:26;25.30;;;11.32;;
53367;SDS011;39271;45.618;20.024;2022-07-24T03:58:01;18.45;;;9.80;;
53367;SDS011;39271;45.618;20.024;2022-07-24T04:00:59;23.83;;;10.35;;
53367;SDS011;39271;45.618;20.024;2022-07-24T04:03:48;20.50;;;10.48;;
53367;SDS011;39271;45.618;20.024;2022-07-24T04:06:14;17.92;;;10.32;;
53367;SDS011;39271;45.618;20.024;2022-07-24T04:08:52;16.83;;;10.02;;
53367;SDS011;39271;45.618;20.024;2022-07-24T04:11:20;16.27;;;9.23;;
53367;SDS011;39271;45.618;20.024;2022-07-24T04:14:02;16.02;;;9.63;;
53367;SDS011;39271;45.618;20.024;2022-07-24T04:16:39;17.75;;;10.07;;
53367;SDS011;39271;45.618;20.024;2022-07-24T04:19:08;20.58;;;9.48;;
53367;SDS011;39271;45.618;20.024;2022-07-24T04:21:34;16.25;;;8.60;;
53367;SDS011;39271;45.618;20.024;2022-07-24T04:24:05;13.25;;;8.63;;
53367;SDS011;39271;45.618;20.024;2022-07-24T04:26:33;13.40;;;8.73;;
53367;SDS011;39271;45.618;20.024;2022-07-24T04:29:02;16.52;;;9.45;;
53367;SDS011;39271;45.618;20.024;2022-07-24T04:31:31;15.95;;;8.90;;
53367;SDS011;39271;45.618;20.024;2022-07-24T04:33:57;19.92;;;8.98;;
53367;SDS011;39271;45.618;20.024;2022-07-24T04:36:29;16.35;;;8.50;;
53367;SDS011;39271;45.618;20.024;2022-07-24T04:38:57;16.65;;;9.00;;
53367;SDS011;39271;45.618;20.024;2022-07-24T04:45:04;17.85;;;8.73;;
53367;SDS011;39271;45.618;20.024;2022-07-24T04:47:41;20.73;;;9.90;;
53367;SDS011;39271;45.618;20.024;2022-07-24T04:50:36;22.55;;;13.88;;
53367;SDS011;39271;45.618;20.024;2022-07-24T04:56:46;43.33;;;28.02;;
53367;SDS011;39271;45.618;20.024;2022-07-24T04:59:24;36.45;;;22.10;;
53367;SDS011;39271;45.618;20.024;2022-07-24T05:01:59;21.60;;;14.95;;
53367;SDS011;39271;45.618;20.024;2022-07-24T05:04:30;33.53;;;18.20;;
53367;SDS011;39271;45.618;20.024;2022-07-24T05:07:25;21.67;;;13.70;;
53367;SDS011;39271;45.618;20.024;2022-07-24T05:10:08;14.40;;;11.55;;
53367;SDS011;39271;45.618;20.024;2022-07-24T05:12:36;15.57;;;11.20;;
53367;SDS011;39271;45.618;20.024;2022-07-24T05:15:06;17.55;;;10.73;;
53367;SDS011;39271;45.618;20.024;2022-07-24T05:17:34;16.73;;;10.48;;
53367;SDS011;39271;45.618;20.024;2022-07-24T05:20:13;18.73;;;10.07;;
53367;SDS011;39271;45.618;20.024;2022-07-24T05:22:39;14.50;;;9.90;;
53367;SDS011;39271;45.618;20.024;2022-07-24T05:25:13;19.08;;;8.77;;
53367;SDS011;39271;45.618;20.024;2022-07-24T05:28:10;16.83;;;9.52;;
53367;SDS011;39271;45.618;20.024;2022-07-24T05:30:46;13.48;;;9.32;;
53367;SDS011;39271;45.618;20.024;2022-07-24T05:33:37;19.25;;;14.02;;
53367;SDS011;39271;45.618;20.024;2022-07-24T05:36:08;15.45;;;12.10;;
53367;SDS011;39271;45.618;20.024;2022-07-24T05:38:37;14.30;;;10.73;;
53367;SDS011;39271;45.618;20.024;2022-07-24T05:41:27;13.35;;;8.68;;
53367;SDS011;39271;45.618;20.024;2022-07-24T05:43:56;17.27;;;10.20;;
53367;SDS011;39271;45.618;20.024;2022-07-24T05:46:24;14.68;;;10.07;;
53367;SDS011;39271;45.618;20.024;2022-07-24T05:48:53;12.80;;;8.40;;
53367;SDS011;39271;45.618;20.024;2022-07-24T05:51:20;12.15;;;8.93;;
53367;SDS011;39271;45.618;20.024;2022-07-24T05:53:57;12.45;;;9.70;;
53367;SDS011;39271;45.618;20.024;2022-07-24T05:56:26;16.45;;;8.95;;
53367;SDS011;39271;45.618;20.024;2022-07-24T06:02:34;17.13;;;9.38;;
53367;SDS011;39271;45.618;20.024;2022-07-24T06:05:06;14.25;;;9.00;;
53367;SDS011;39271;45.618;20.024;2022-07-24T06:07:38;14.68;;;9.13;;
53367;SDS011;39271;45.618;20.024;2022-07-24T06:10:10;18.55;;;13.85;;
53367;SDS011;39271;45.618;20.024;2022-07-24T06:12:48;15.55;;;12.02;;
53367;SDS011;39271;45.618;20.024;2022-07-24T06:15:14;15.88;;;10.52;;
53367;SDS011;39271;45.618;20.024;2022-07-24T06:17:42;15.77;;;9.70;;
53367;SDS011;39271;45.618;20.024;2022-07-24T06:20:16;12.20;;;8.05;;
53367;SDS011;39271;45.618;20.024;2022-07-24T06:22:57;11.50;;;8.52;;
53367;SDS011;39271;45.618;20.024;2022-07-24T06:25:26;15.88;;;9.60;;
53367;SDS011;39271;45.618;20.024;2022-07-24T06:27:55;13.57;;;10.00;;
53367;SDS011;39271;45.618;20.024;2022-07-24T06:30:25;10.65;;;9.20;;
53367;SDS011;39271;45.618;20.024;2022-07-24T06:32:52;12.60;;;9.32;;
53367;SDS011;39271;45.618;20.024;2022-07-24T06:38:45;18.77;;;9.77;;
53367;SDS011;39271;45.618;20.024;2022-07-24T06:41:14;11.68;;;9.55;;
53367;SDS011;39271;45.618;20.024;2022-07-24T06:43:40;10.45;;;9.43;;
53367;SDS011;39271;45.618;20.024;2022-07-24T06:46:05;16.35;;;10.85;;
53367;SDS011;39271;45.618;20.024;2022-07-24T06:48:31;12.52;;;10.02;;
53367;SDS011;39271;45.618;20.024;2022-07-24T06:53:34;15.63;;;10.18;;
53367;SDS011;39271;45.618;20.024;2022-07-24T06:56:01;12.13;;;9.68;;
53367;SDS011;39271;45.618;20.024;2022-07-24T06:58:27;13.77;;;9.82;;
53367;SDS011;39271;45.618;20.024;2022-07-24T07:00:53;15.68;;;9.57;;
53367;SDS011;39271;45.618;20.024;2022-07-24T07:03:18;12.85;;;10.15;;
53367;SDS011;39271;45.618;20.024;2022-07-24T07:05:44;14.77;;;9.30;;
53367;SDS011;39271;45.618;20.024;2022-07-24T07:08:10;11.38;;;9.88;;
53367;SDS011;39271;45.618;20.024;2022-07-24T07:10:36;14.15;;;10.23;;
53367;SDS011;39271;45.618;20.024;2022-07-24T07:13:01;14.57;;;8.55;;
53367;SDS011;39271;45.618;20.024;2022-07-24T07:15:27;13.77;;;9.93;;
53367;SDS011;39271;45.618;20.024;2022-07-24T07:17:53;17.90;;;9.50;;
53367;SDS011;39271;45.618;20.024;2022-07-24T07:20:18;12.02;;;9.90;;
53367;SDS011;39271;45.618;20.024;2022-07-24T07:22:44;11.55;;;9.15;;
53367;SDS011;39271;45.618;20.024;2022-07-24T07:25:10;12.70;;;9.45;;
53367;SDS011;39271;45.618;20.024;2022-07-24T07:27:36;13.18;;;10.23;;
53367;SDS011;39271;45.618;20.024;2022-07-24T07:30:05;11.45;;;9.50;;
53367;SDS011;39271;45.618;20.024;2022-07-24T07:32:37;11.15;;;9.35;;
53367;SDS011;39271;45.618;20.024;2022-07-24T07:35:03;15.98;;;9.98;;
53367;SDS011;39271;45.618;20.024;2022-07-24T07:37:29;17.27;;;9.38;;
53367;SDS011;39271;45.618;20.024;2022-07-24T07:39:58;11.65;;;9.32;;
53367;SDS011;39271;45.618;20.024;2022-07-24T07:42:24;10.30;;;8.25;;
53367;SDS011;39271;45.618;20.024;2022-07-24T07:44:50;10.13;;;8.88;;
53367;SDS011;39271;45.618;20.024;2022-07-24T07:47:15;9.43;;;7.80;;
53367;SDS011;39271;45.618;20.024;2022-07-24T07:49:41;13.77;;;8.85;;
53367;SDS011;39271;45.618;20.024;2022-07-24T07:52:10;11.93;;;8.75;;
53367;SDS011;39271;45.618;20.024;2022-07-24T07:54:36;12.75;;;8.20;;
53367;SDS011;39271;45.618;20.024;2022-07-24T07:57:03;10.25;;;8.32;;
53367;SDS011;39271;45.618;20.024;2022-07-24T07:59:29;10.25;;;7.55;;
53367;SDS011;39271;45.618;20.024;2022-07-24T08:01:55;12.00;;;7.68;;
53367;SDS011;39271;45.618;20.024;2022-07-24T08:04:21;10.35;;;8.00;;
53367;SDS011;39271;45.618;20.024;2022-07-24T08:06:46;10.27;;;7.22;;
53367;SDS011;39271;45.618;20.024;2022-07-24T08:09:12;11.00;;;7.93;;
53367;SDS011;39271;45.618;20.024;2022-07-24T08:11:38;9.23;;;7.70;;
53367;SDS011;39271;45.618;20.024;2022-07-24T08:14:06;9.23;;;7.10;;
53367;SDS011;39271;45.618;20.024;2022-07-24T08:16:32;13.80;;;8.13;;
53367;SDS011;39271;45.618;20.024;2022-07-24T08:18:57;10.45;;;7.63;;
53367;SDS011;39271;45.618;20.024;2022-07-24T08:21:24;9.25;;;7.28;;
53367;SDS011;39271;45.618;20.024;2022-07-24T08:23:49;11.57;;;6.85;;
53367;SDS011;39271;45.618;20.024;2022-07-24T08:26:15;9.77;;;6.63;;
53367;SDS011;39271;45.618;20.024;2022-07-24T08:28:41;11.80;;;6.88;;
53367;SDS011;39271;45.618;20.024;2022-07-24T08:31:07;11.00;;;7.00;;
53367;SDS011;39271;45.618;20.024;2022-07-24T08:33:33;7.90;;;6.60;;
53367;SDS011;39271;45.618;20.024;2022-07-24T08:36:05;9.40;;;7.00;;
53367;SDS011;39271;45.618;20.024;2022-07-24T08:38:31;9.90;;;6.88;;
53367;SDS011;39271;45.618;20.024;2022-07-24T08:40:57;9.15;;;6.72;;
53367;SDS011;39271;45.618;20.024;2022-07-24T08:43:24;9.68;;;6.40;;
53367;SDS011;39271;45.618;20.024;2022-07-24T08:45:50;8.85;;;6.88;;
53367;SDS011;39271;45.618;20.024;2022-07-24T08:48:19;10.77;;;7.45;;
53367;SDS011;39271;45.618;20.024;2022-07-24T08:50:46;11.05;;;7.00;;
53367;SDS011;39271;45.618;20.024;2022-07-24T08:53:12;9.45;;;6.68;;
53367;SDS011;39271;45.618;20.024;2022-07-24T08:55:38;8.32;;;7.45;;
53367;SDS011;39271;45.618;20.024;2022-07-24T08:58:04;11.10;;;7.32;;
53367;SDS011;39271;45.618;20.024;2022-07-24T09:00:30;8.85;;;7.10;;
53367;SDS011;39271;45.618;20.024;2022-07-24T09:03:00;10.23;;;6.85;;
53367;SDS011;39271;45.618;20.024;2022-07-24T09:05:26;9.48;;;6.30;;
53367;SDS011;39271;45.618;20.024;2022-07-24T09:08:07;8.20;;;6.55;;
53367;SDS011;39271;45.618;20.024;2022-07-24T09:10:37;10.20;;;6.63;;
53367;SDS011;39271;45.618;20.024;2022-07-24T09:13:16;10.18;;;8.05;;
53367;SDS011;39271;45.618;20.024;2022-07-24T09:15:46;11.15;;;7.35;;
53367;SDS011;39271;45.618;20.024;2022-07-24T09:18:30;13.82;;;7.07;;
53367;SDS011;39271;45.618;20.024;2022-07-24T09:21:11;8.50;;;7.65;;
53367;SDS011;39271;45.618;20.024;2022-07-24T09:23:39;13.57;;;7.47;;
53367;SDS011;39271;45.618;20.024;2022-07-24T09:26:06;7.78;;;7.05;;
53367;SDS011;39271;45.618;20.024;2022-07-24T09:28:51;13.10;;;7.95;;
53367;SDS011;39271;45.618;20.024;2022-07-24T09:31:19;8.40;;;7.00;;
53367;SDS011;39271;45.618;20.024;2022-07-24T09:33:48;9.82;;;6.75;;
53367;SDS011;39271;45.618;20.024;2022-07-24T09:36:15;10.75;;;7.03;;
53367;SDS011;39271;45.618;20.024;2022-07-24T09:38:48;11.75;;;7.45;;
53367;SDS011;39271;45.618;20.024;2022-07-24T09:41:22;9.48;;;6.93;;
53367;SDS011;39271;45.618;20.024;2022-07-24T09:43:59;12.32;;;8.48;;
53367;SDS011;39271;45.618;20.024;2022-07-24T09:46:27;11.30;;;7.80;;
53367;SDS011;39271;45.618;20.024;2022-07-24T09:48:54;12.05;;;7.68;;
53367;SDS011;39271;45.618;20.024;2022-07-24T09:51:26;12.52;;;7.47;;
53367;SDS011;39271;45.618;20.024;2022-07-24T09:53:57;11.68;;;8.65;;
53367;SDS011;39271;45.618;20.024;2022-07-24T09:56:25;9.32;;;7.57;;
53367;SDS011;39271;45.618;20.024;2022-07-24T09:58:52;11.95;;;8.13;;
53367;SDS011;39271;45.618;20.024;2022-07-24T10:01:20;10.90;;;8.65;;
53367;SDS011;39271;45.618;20.024;2022-07-24T10:03:50;10.13;;;7.13;;
53367;SDS011;39271;45.618;20.024;2022-07-24T10:06:18;10.85;;;8.30;;
53367;SDS011;39271;45.618;20.024;2022-07-24T10:08:48;10.38;;;8.38;;
53367;SDS011;39271;45.618;20.024;2022-07-24T10:11:16;9.02;;;7.60;;
53367;SDS011;39271;45.618;20.024;2022-07-24T10:13:43;8.20;;;7.22;;
53367;SDS011;39271;45.618;20.024;2022-07-24T10:18:52;11.07;;;8.13;;
53367;SDS011;39271;45.618;20.024;2022-07-24T10:21:21;15.02;;;8.35;;
53367;SDS011;39271;45.618;20.024;2022-07-24T10:26:37;8.85;;;7.57;;
53367;SDS011;39271;45.618;20.024;2022-07-24T10:29:12;13.40;;;7.47;;
53367;SDS011;39271;45.618;20.024;2022-07-24T10:31:49;16.45;;;8.63;;
53367;SDS011;39271;45.618;20.024;2022-07-24T10:40:30;13.70;;;8.25;;
53367;SDS011;39271;45.618;20.024;2022-07-24T10:48:30;11.15;;;8.50;;
53367;SDS011;39271;45.618;20.024;2022-07-24T10:51:13;12.90;;;8.32;;
53367;SDS011;39271;45.618;20.024;2022-07-24T11:04:03;10.07;;;8.15;;
53367;SDS011;39271;45.618;20.024;2022-07-24T11:09:17;9.63;;;8.10;;
53367;SDS011;39271;45.618;20.024;2022-07-24T11:14:17;14.52;;;8.63;;
53367;SDS011;39271;45.618;20.024;2022-07-24T11:16:43;26.38;;;10.88;;
53367;SDS011;39271;45.618;20.024;2022-07-24T11:21:40;21.42;;;10.00;;
53367;SDS011;39271;45.618;20.024;2022-07-24T11:29:29;12.10;;;10.45;;
53367;SDS011;39271;45.618;20.024;2022-07-24T11:34:31;12.77;;;9.27;;
53367;SDS011;39271;45.618;20.024;2022-07-24T11:36:58;13.45;;;9.82;;
53367;SDS011;39271;45.618;20.024;2022-07-24T11:39:29;11.60;;;9.35;;
53367;SDS011;39271;45.618;20.024;2022-07-24T11:42:00;13.75;;;10.38;;
53367;SDS011;39271;45.618;20.024;2022-07-24T11:44:38;9.73;;;8.73;;
53367;SDS011;39271;45.618;20.024;2022-07-24T11:49:40;13.05;;;8.82;;
53367;SDS011;39271;45.618;20.024;2022-07-24T11:52:17;11.02;;;9.98;;
53367;SDS011;39271;45.618;20.024;2022-07-24T11:55:13;10.50;;;9.40;;
53367;SDS011;39271;45.618;20.024;2022-07-24T11:57:41;9.45;;;8.52;;
53367;SDS011;39271;45.618;20.024;2022-07-24T12:00:12;9.23;;;8.32;;
53367;SDS011;39271;45.618;20.024;2022-07-24T12:02:48;10.77;;;8.52;;
53367;SDS011;39271;45.618;20.024;2022-07-24T12:05:23;10.32;;;9.25;;
53367;SDS011;39271;45.618;20.024;2022-07-24T12:07:57;11.40;;;9.05;;
53367;SDS011;39271;45.618;20.024;2022-07-24T12:10:24;14.95;;;8.30;;
53367;SDS011;39271;45.618;20.024;2022-07-24T12:12:51;12.55;;;9.02;;
53367;SDS011;39271;45.618;20.024;2022-07-24T12:15:18;9.18;;;8.27;;
53367;SDS011;39271;45.618;20.024;2022-07-24T12:17:58;10.30;;;8.02;;
53367;SDS011;39271;45.618;20.024;2022-07-24T12:20:26;9.10;;;8.20;;
53367;SDS011;39271;45.618;20.024;2022-07-24T12:22:54;8.55;;;7.75;;
53367;SDS011;39271;45.618;20.024;2022-07-24T12:25:21;9.43;;;8.38;;
53367;SDS011;39271;45.618;20.024;2022-07-24T12:27:48;11.65;;;8.13;;
53367;SDS011;39271;45.618;20.024;2022-07-24T12:30:18;11.65;;;8.30;;
53367;SDS011;39271;45.618;20.024;2022-07-24T12:33:07;12.52;;;8.15;;
53367;SDS011;39271;45.618;20.024;2022-07-24T12:36:03;11.68;;;8.48;;
53367;SDS011;39271;45.618;20.024;2022-07-24T12:38:51;13.23;;;8.60;;
53367;SDS011;39271;45.618;20.024;2022-07-24T12:41:19;8.48;;;7.57;;
53367;SDS011;39271;45.618;20.024;2022-07-24T12:46:28;9.00;;;8.10;;
53367;SDS011;39271;45.618;20.024;2022-07-24T12:49:11;9.90;;;7.68;;
53367;SDS011;39271;45.618;20.024;2022-07-24T12:51:46;10.90;;;7.82;;
53367;SDS011;39271;45.618;20.024;2022-07-24T12:56:48;9.88;;;8.40;;
53367;SDS011;39271;45.618;20.024;2022-07-24T13:02:03;10.30;;;7.53;;
53367;SDS011;39271;45.618;20.024;2022-07-24T13:04:31;9.98;;;7.88;;
53367;SDS011;39271;45.618;20.024;2022-07-24T13:06:59;10.30;;;8.35;;
53367;SDS011;39271;45.618;20.024;2022-07-24T13:09:26;9.90;;;8.30;;
53367;SDS011;39271;45.618;20.024;2022-07-24T13:11:53;9.32;;;8.10;;
53367;SDS011;39271;45.618;20.024;2022-07-24T13:14:21;12.07;;;8.32;;
53367;SDS011;39271;45.618;20.024;2022-07-24T13:16:49;9.52;;;8.52;;
53367;SDS011;39271;45.618;20.024;2022-07-24T13:19:16;10.50;;;8.15;;
53367;SDS011;39271;45.618;20.024;2022-07-24T13:21:43;9.27;;;8.18;;
53367;SDS011;39271;45.618;20.024;2022-07-24T13:24:11;9.50;;;7.95;;
53367;SDS011;39271;45.618;20.024;2022-07-24T13:26:39;9.60;;;8.60;;
53367;SDS011;39271;45.618;20.024;2022-07-24T13:29:06;11.07;;;8.73;;
53367;SDS011;39271;45.618;20.024;2022-07-24T13:31:33;9.02;;;8.10;;
53367;SDS011;39271;45.618;20.024;2022-07-24T13:33:59;9.02;;;8.05;;
53367;SDS011;39271;45.618;20.024;2022-07-24T13:36:25;12.50;;;8.55;;
53367;SDS011;39271;45.618;20.024;2022-07-24T13:38:51;9.43;;;8.48;;
53367;SDS011;39271;45.618;20.024;2022-07-24T13:41:20;9.52;;;8.43;;
53367;SDS011;39271;45.618;20.024;2022-07-24T13:43:46;9.75;;;8.70;;
53367;SDS011;39271;45.618;20.024;2022-07-24T13:46:22;9.25;;;8.32;;
53367;SDS011;39271;45.618;20.024;2022-07-24T13:48:48;11.98;;;8.35;;
53367;SDS011;39271;45.618;20.024;2022-07-24T13:51:20;10.05;;;7.70;;
53367;SDS011;39271;45.618;20.024;2022-07-24T13:53:49;11.82;;;9.48;;
53367;SDS011;39271;45.618;20.024;2022-07-24T13:56:14;10.07;;;7.97;;
53367;SDS011;39271;45.618;20.024;2022-07-24T13:58:40;9.93;;;8.25;;
53367;SDS011;39271;45.618;20.024;2022-07-24T14:01:07;9.98;;;8.98;;
53367;SDS011;39271;45.618;20.024;2022-07-24T14:03:33;10.00;;;9.00;;
53367;SDS011;39271;45.618;20.024;2022-07-24T14:06:00;10.52;;;7.45;;
53367;SDS011;39271;45.618;20.024;2022-07-24T14:08:27;11.27;;;8.50;;
53367;SDS011;39271;45.618;20.024;2022-07-24T14:10:53;10.82;;;8.20;;
53367;SDS011;39271;45.618;20.024;2022-07-24T14:13:18;10.10;;;7.35;;
53367;SDS011;39271;45.618;20.024;2022-07-24T14:15:44;8.35;;;7.55;;
53367;SDS011;39271;45.618;20.024;2022-07-24T14:18:13;9.25;;;7.25;;
53367;SDS011;39271;45.618;20.024;2022-07-24T14:20:39;10.02;;;7.50;;
53367;SDS011;39271;45.618;20.024;2022-07-24T14:23:05;10.32;;;7.82;;
53367;SDS011;39271;45.618;20.024;2022-07-24T14:25:31;9.38;;;7.75;;
53367;SDS011;39271;45.618;20.024;2022-07-24T14:28:00;8.40;;;7.57;;
53367;SDS011;39271;45.618;20.024;2022-07-24T14:30:26;11.38;;;8.48;;
53367;SDS011;39271;45.618;20.024;2022-07-24T14:32:52;14.93;;;8.40;;
53367;SDS011;39271;45.618;20.024;2022-07-24T14:35:20;10.48;;;7.10;;
53367;SDS011;39271;45.618;20.024;2022-07-24T14:37:48;9.95;;;7.78;;
53367;SDS011;39271;45.618;20.024;2022-07-24T14:40:14;9.00;;;7.25;;
53367;SDS011;39271;45.618;20.024;2022-07-24T14:42:40;9.52;;;7.28;;
53367;SDS011;39271;45.618;20.024;2022-07-24T14:45:06;8.05;;;6.32;;
53367;SDS011;39271;45.618;20.024;2022-07-24T14:47:32;8.65;;;7.38;;
53367;SDS011;39271;45.618;20.024;2022-07-24T14:49:57;8.30;;;7.05;;
53367;SDS011;39271;45.618;20.024;2022-07-24T14:52:23;8.90;;;7.03;;
53367;SDS011;39271;45.618;20.024;2022-07-24T14:54:49;11.10;;;7.93;;
53367;SDS011;39271;45.618;20.024;2022-07-24T14:57:21;8.68;;;7.32;;
53367;SDS011;39271;45.618;20.024;2022-07-24T14:59:46;9.25;;;6.65;;
53367;SDS011;39271;45.618;20.024;2022-07-24T15:02:12;8.50;;;7.35;;
53367;SDS011;39271;45.618;20.024;2022-07-24T15:04:38;9.07;;;8.00;;
53367;SDS011;39271;45.618;20.024;2022-07-24T15:07:05;10.95;;;7.15;;
53367;SDS011;39271;45.618;20.024;2022-07-24T15:09:31;9.15;;;7.15;;
53367;SDS011;39271;45.618;20.024;2022-07-24T15:11:57;13.13;;;8.25;;
53367;SDS011;39271;45.618;20.024;2022-07-24T15:14:22;9.05;;;7.20;;
53367;SDS011;39271;45.618;20.024;2022-07-24T15:16:54;8.50;;;6.60;;
53367;SDS011;39271;45.618;20.024;2022-07-24T15:19:20;8.52;;;6.32;;
53367;SDS011;39271;45.618;20.024;2022-07-24T15:21:46;6.97;;;6.28;;
53367;SDS011;39271;45.618;20.024;2022-07-24T15:24:12;6.22;;;5.63;;
53367;SDS011;39271;45.618;20.024;2022-07-24T15:26:40;8.75;;;5.85;;
53367;SDS011;39271;45.618;20.024;2022-07-24T15:29:06;8.25;;;7.32;;
53367;SDS011;39271;45.618;20.024;2022-07-24T15:31:32;9.48;;;6.20;;
53367;SDS011;39271;45.618;20.024;2022-07-24T15:33:58;6.97;;;6.28;;
53367;SDS011;39271;45.618;20.024;2022-07-24T15:36:24;9.27;;;6.75;;
53367;SDS011;39271;45.618;20.024;2022-07-24T15:38:50;10.05;;;6.32;;
53367;SDS011;39271;45.618;20.024;2022-07-24T15:41:16;9.77;;;6.40;;
53367;SDS011;39271;45.618;20.024;2022-07-24T15:43:41;7.40;;;6.60;;
53367;SDS011;39271;45.618;20.024;2022-07-24T15:46:07;7.55;;;6.80;;
53367;SDS011;39271;45.618;20.024;2022-07-24T15:48:33;8.40;;;6.53;;
53367;SDS011;39271;45.618;20.024;2022-07-24T15:50:59;7.82;;;6.10;;
53367;SDS011;39271;45.618;20.024;2022-07-24T15:53:25;7.22;;;6.43;;
53367;SDS011;39271;45.618;20.024;2022-07-24T15:55:54;12.23;;;7.10;;
53367;SDS011;39271;45.618;20.024;2022-07-24T15:58:19;9.13;;;7.22;;
53367;SDS011;39271;45.618;20.024;2022-07-24T16:00:48;8.70;;;6.65;;
53367;SDS011;39271;45.618;20.024;2022-07-24T16:03:15;7.35;;;6.57;;
53367;SDS011;39271;45.618;20.024;2022-07-24T16:05:53;8.07;;;6.57;;
53367;SDS011;39271;45.618;20.024;2022-07-24T16:08:18;7.55;;;6.13;;
53367;SDS011;39271;45.618;20.024;2022-07-24T16:10:44;7.97;;;6.32;;
53367;SDS011;39271;45.618;20.024;2022-07-24T16:13:10;7.45;;;6.65;;
53367;SDS011;39271;45.618;20.024;2022-07-24T16:15:35;8.23;;;6.72;;
53367;SDS011;39271;45.618;20.024;2022-07-24T16:18:03;7.55;;;6.72;;
53367;SDS011;39271;45.618;20.024;2022-07-24T16:20:32;8.80;;;6.70;;
53367;SDS011;39271;45.618;20.024;2022-07-24T16:23:01;8.55;;;6.68;;
53367;SDS011;39271;45.618;20.024;2022-07-24T16:25:27;7.20;;;6.40;;
53367;SDS011;39271;45.618;20.024;2022-07-24T16:27:53;7.47;;;6.75;;
53367;SDS011;39271;45.618;20.024;2022-07-24T16:30:19;6.25;;;5.65;;
53367;SDS011;39271;45.618;20.024;2022-07-24T16:32:48;7.47;;;6.30;;
53367;SDS011;39271;45.618;20.024;2022-07-24T16:35:14;8.32;;;6.97;;
53367;SDS011;39271;45.618;20.024;2022-07-24T16:37:42;7.22;;;6.28;;
53367;SDS011;39271;45.618;20.024;2022-07-24T16:40:08;10.98;;;6.95;;
53367;SDS011;39271;45.618;20.024;2022-07-24T16:42:34;9.98;;;6.55;;
53367;SDS011;39271;45.618;20.024;2022-07-24T16:45:00;10.85;;;7.00;;
53367;SDS011;39271;45.618;20.024;2022-07-24T16:47:26;6.93;;;5.88;;